< < Back
Terminal Aerodrome Forecast


Current Version              Previous Versions:   1  2  3  4  5  6  7  8  9  

Terminal Aerodrome Forecast

718
FTUS42 KGSP 242300
TAFAND
TAF
KAND 242333Z 2500/2524 24008KT P6SM SCT040 BKN200
     FM250400 26004KT P6SM SCT060
     FM250800 34003KT 5SM BR FEW060
     FM251200 02003KT P6SM FEW010 SCT060
     FM251700 23004KT P6SM SCT060=

Latest METAR

396
SAUS70 KWBC 251300 RRD
MTRAND
METAR KAND 251256Z AUTO 04007KT 10SM BKN038 BKN048 23/20 A3006 RMK AO2
SLP170 T02330200


USA.gov is the U.S. government's official web portal to all federal, state and local government web resources and services.